createdAt,value
2023-02-25T00:01:27.887Z,6.75
2023-02-25T00:03:56.892Z,4.10
2023-02-25T00:06:24.765Z,5.35
2023-02-25T00:08:52.830Z,5.07
2023-02-25T00:11:20.985Z,6.13
2023-02-25T00:13:48.002Z,4.60
2023-02-25T00:16:16.192Z,7.07
2023-02-25T00:18:47.110Z,5.80
2023-02-25T00:21:16.372Z,4.75
2023-02-25T00:23:47.915Z,5.63
2023-02-25T00:26:16.726Z,5.80
2023-02-25T00:28:44.408Z,5.15
2023-02-25T00:31:15.679Z,4.85
2023-02-25T00:33:43.655Z,3.90
2023-02-25T00:36:14.720Z,6.80
2023-02-25T00:38:41.930Z,7.45
2023-02-25T00:41:14.261Z,2.90
2023-02-25T00:46:12.453Z,5.85
2023-02-25T00:48:40.563Z,4.75
2023-02-25T00:51:19.647Z,4.20
2023-02-25T00:53:46.886Z,4.63
2023-02-25T00:56:16.017Z,4.97
2023-02-25T00:58:45.032Z,5.85
2023-02-25T01:01:22.625Z,6.38
2023-02-25T01:03:51.611Z,4.78
2023-02-25T01:06:20.047Z,5.57
2023-02-25T01:08:47.750Z,7.18
2023-02-25T01:11:21.272Z,5.30
2023-02-25T01:13:50.256Z,6.38
2023-02-25T01:16:21.431Z,6.20
2023-02-25T01:18:53.095Z,6.47
2023-02-25T01:21:40.820Z,6.95
2023-02-25T01:24:12.584Z,5.70
2023-02-25T01:26:44.829Z,7.23
2023-02-25T01:29:19.305Z,6.00
2023-02-25T01:31:46.874Z,6.32
2023-02-25T01:34:17.883Z,6.38
2023-02-25T01:36:45.541Z,4.13
2023-02-25T01:39:14.278Z,6.45
2023-02-25T01:41:42.015Z,7.03
2023-02-25T01:44:22.532Z,8.23
2023-02-25T01:46:53.343Z,8.05
2023-02-25T01:49:33.066Z,7.30
2023-02-25T01:52:11.675Z,6.70
2023-02-25T01:54:39.535Z,5.93
2023-02-25T01:57:11.008Z,7.25
2023-02-25T01:59:40.370Z,6.32
2023-02-25T02:02:13.976Z,7.57
2023-02-25T02:04:43.278Z,6.68
2023-02-25T02:07:11.273Z,7.15
2023-02-25T02:09:40.523Z,5.15
2023-02-25T02:12:08.382Z,7.70
2023-02-25T02:14:41.767Z,7.63
2023-02-25T02:17:44.392Z,7.07
2023-02-25T02:20:15.486Z,6.68
2023-02-25T02:22:47.659Z,8.40
2023-02-25T02:25:20.961Z,7.25
2023-02-25T02:28:36.002Z,5.53
2023-02-25T02:31:14.276Z,6.82
2023-02-25T02:33:56.471Z,7.15
2023-02-25T02:36:47.941Z,7.18
2023-02-25T02:39:33.123Z,6.05
2023-02-25T02:42:11.397Z,6.45
2023-02-25T02:44:56.439Z,6.68
2023-02-25T02:47:34.791Z,7.07
2023-02-25T02:50:20.770Z,6.03
2023-02-25T02:52:52.605Z,6.25
2023-02-25T02:55:22.696Z,7.38
2023-02-25T02:57:58.164Z,6.18
2023-02-25T03:00:30.145Z,7.88
2023-02-25T03:03:10.439Z,6.30
2023-02-25T03:05:41.333Z,7.82
2023-02-25T03:08:14.200Z,7.00
2023-02-25T03:10:41.463Z,7.60
2023-02-25T03:13:09.134Z,6.10
2023-02-25T03:15:39.959Z,6.22
2023-02-25T03:18:25.747Z,6.95
2023-02-25T03:20:56.366Z,7.50
2023-02-25T03:23:29.027Z,6.07
2023-02-25T03:28:34.462Z,5.38
2023-02-25T03:31:12.127Z,6.70
2023-02-25T03:33:56.875Z,6.07
2023-02-25T03:36:35.069Z,5.65
2023-02-25T03:39:11.581Z,6.88
2023-02-25T03:41:45.231Z,7.28
2023-02-25T03:44:18.391Z,6.93
2023-02-25T03:46:47.946Z,6.88
2023-02-25T03:49:21.995Z,7.65
2023-02-25T03:51:52.304Z,6.28
2023-02-25T03:54:20.041Z,5.28
2023-02-25T03:56:50.775Z,8.25
2023-02-25T03:59:19.938Z,6.97
2023-02-25T04:01:50.691Z,7.45
2023-02-25T04:04:17.918Z,8.45
2023-02-25T04:06:45.319Z,5.32
2023-02-25T04:09:13.449Z,6.65
2023-02-25T04:11:42.231Z,6.43
2023-02-25T04:14:09.348Z,6.82
2023-02-25T04:16:37.352Z,6.68
2023-02-25T04:19:08.089Z,6.85
2023-02-25T04:21:37.163Z,7.65
2023-02-25T04:24:07.036Z,5.40
2023-02-25T04:26:35.590Z,8.55
2023-02-25T04:29:04.078Z,7.40
2023-02-25T04:31:31.724Z,5.93
2023-02-25T04:33:59.262Z,7.45
2023-02-25T04:36:35.728Z,6.95
2023-02-25T04:39:05.646Z,5.97
2023-02-25T04:41:36.020Z,6.30
2023-02-25T04:44:05.024Z,6.90
2023-02-25T04:46:34.562Z,8.57
2023-02-25T04:49:03.163Z,6.28
2023-02-25T04:51:30.667Z,7.40
2023-02-25T04:53:58.527Z,9.07
2023-02-25T04:56:26.877Z,7.50
2023-02-25T04:58:54.490Z,9.52
2023-02-25T05:01:22.388Z,9.75
2023-02-25T05:03:50.318Z,7.07
2023-02-25T05:06:17.679Z,6.90
2023-02-25T05:08:44.952Z,7.03
2023-02-25T05:11:12.487Z,8.95
2023-02-25T05:13:39.583Z,8.25
2023-02-25T05:16:10.068Z,10.02
2023-02-25T05:18:38.938Z,7.40
2023-02-25T05:21:15.117Z,9.48
2023-02-25T05:23:44.780Z,8.40
2023-02-25T05:26:13.206Z,6.45
2023-02-25T05:28:41.612Z,8.70
2023-02-25T05:31:11.642Z,8.77
2023-02-25T05:33:41.042Z,9.50
2023-02-25T05:36:10.808Z,10.57
2023-02-25T05:38:38.132Z,10.02
2023-02-25T05:41:07.064Z,11.13
2023-02-25T05:43:35.793Z,11.88
2023-02-25T05:46:03.624Z,9.77
2023-02-25T05:48:34.388Z,10.23
2023-02-25T05:51:04.953Z,7.63
2023-02-25T05:53:32.765Z,10.52
2023-02-25T05:56:03.801Z,11.45
2023-02-25T05:58:31.251Z,12.63
2023-02-25T06:00:58.587Z,11.68
2023-02-25T06:03:26.702Z,12.45
2023-02-25T06:05:53.796Z,10.63
2023-02-25T06:08:20.989Z,10.82
2023-02-25T06:10:48.822Z,12.13
2023-02-25T06:13:16.164Z,12.23
2023-02-25T06:15:44.387Z,9.65
2023-02-25T06:18:11.652Z,11.98
2023-02-25T06:20:39.267Z,13.45
2023-02-25T06:23:09.679Z,16.20
2023-02-25T06:25:37.432Z,11.85
2023-02-25T06:28:05.028Z,12.98
2023-02-25T06:30:32.695Z,11.23
2023-02-25T06:32:59.982Z,9.90
2023-02-25T06:35:27.493Z,13.27
2023-02-25T06:37:59.574Z,10.25
2023-02-25T06:40:29.425Z,12.52
2023-02-25T06:42:56.832Z,12.32
2023-02-25T06:45:24.425Z,11.70
2023-02-25T06:47:52.147Z,15.15
2023-02-25T06:50:20.604Z,12.48
2023-02-25T06:52:48.057Z,12.77
2023-02-25T06:55:15.796Z,12.70
2023-02-25T06:57:43.669Z,12.50
2023-02-25T07:00:12.105Z,12.15
2023-02-25T07:02:39.615Z,13.55
2023-02-25T07:05:07.590Z,14.18
2023-02-25T07:07:35.279Z,11.88
2023-02-25T07:10:03.025Z,8.95
2023-02-25T07:12:31.595Z,10.07
2023-02-25T07:14:59.707Z,12.07
2023-02-25T07:17:27.798Z,11.32
2023-02-25T07:19:56.566Z,11.98
2023-02-25T07:22:26.259Z,13.52
2023-02-25T07:24:53.630Z,12.90
2023-02-25T07:27:20.991Z,12.65
2023-02-25T07:29:48.613Z,13.07
2023-02-25T07:32:19.349Z,12.73
2023-02-25T07:34:48.072Z,12.38
2023-02-25T07:37:15.304Z,13.63
2023-02-25T07:39:42.383Z,11.27
2023-02-25T07:42:09.912Z,14.35
2023-02-25T07:44:37.773Z,11.98
2023-02-25T07:47:05.432Z,11.10
2023-02-25T07:49:33.922Z,11.63
2023-02-25T07:52:02.249Z,11.95
2023-02-25T07:54:30.207Z,13.10
2023-02-25T07:56:57.750Z,12.57
2023-02-25T07:59:28.005Z,12.02
2023-02-25T08:01:55.627Z,11.15
2023-02-25T08:04:23.582Z,11.15
2023-02-25T08:06:51.963Z,9.05
2023-02-25T08:09:19.564Z,10.82
2023-02-25T08:11:47.478Z,9.20
2023-02-25T08:14:15.768Z,12.68
2023-02-25T08:16:43.692Z,11.75
2023-02-25T08:19:11.866Z,13.45
2023-02-25T08:21:40.772Z,11.05
2023-02-25T08:24:08.554Z,14.23
2023-02-25T08:26:35.975Z,10.25
2023-02-25T08:29:04.128Z,11.77
2023-02-25T08:31:31.929Z,11.43
2023-02-25T08:33:59.719Z,8.63
2023-02-25T08:36:30.705Z,10.48
2023-02-25T08:39:00.193Z,11.85
2023-02-25T08:41:29.645Z,10.50
2023-02-25T08:44:00.795Z,12.50
2023-02-25T08:46:31.889Z,12.13
2023-02-25T08:49:00.741Z,9.32
2023-02-25T08:51:34.677Z,10.27
2023-02-25T08:54:04.387Z,9.93
2023-02-25T08:56:31.738Z,11.70
2023-02-25T08:58:59.788Z,11.40
2023-02-25T09:01:28.762Z,11.27
2023-02-25T09:03:58.741Z,12.05
2023-02-25T09:06:28.177Z,10.75
2023-02-25T09:08:56.833Z,13.07
2023-02-25T09:11:26.006Z,11.88
2023-02-25T09:13:54.251Z,11.75
2023-02-25T09:16:21.639Z,12.52
2023-02-25T09:18:51.709Z,11.30
2023-02-25T09:21:19.920Z,10.43
2023-02-25T09:23:47.261Z,12.13
2023-02-25T09:26:15.166Z,10.82
2023-02-25T09:28:42.432Z,11.10
2023-02-25T09:31:10.195Z,9.82
2023-02-25T09:33:38.774Z,11.02
2023-02-25T09:36:10.813Z,10.75
2023-02-25T09:38:40.794Z,11.02
2023-02-25T09:41:31.172Z,7.18
2023-02-25T09:44:10.999Z,9.90
2023-02-25T09:46:47.020Z,10.43
2023-02-25T09:49:32.226Z,8.68
2023-02-25T09:52:07.930Z,11.35
2023-02-25T09:54:42.657Z,7.97
2023-02-25T09:57:19.142Z,9.85
2023-02-25T09:59:47.542Z,9.10
2023-02-25T10:02:20.458Z,10.48
2023-02-25T10:05:33.512Z,10.88
2023-02-25T10:08:19.065Z,9.32
2023-02-25T10:11:10.559Z,7.95
2023-02-25T10:14:05.542Z,8.27
2023-02-25T10:16:56.609Z,6.28
2023-02-25T10:19:39.183Z,9.38
2023-02-25T10:22:22.076Z,7.28
2023-02-25T10:24:54.029Z,7.63
2023-02-25T10:27:37.832Z,8.65
2023-02-25T10:32:37.378Z,6.40
2023-02-25T10:35:24.396Z,6.75
2023-02-25T10:37:53.084Z,8.07
2023-02-25T10:40:25.380Z,6.68
2023-02-25T10:42:55.568Z,7.47
2023-02-25T10:45:28.387Z,7.85
2023-02-25T10:48:04.266Z,7.10
2023-02-25T10:50:44.878Z,7.18
2023-02-25T10:53:18.792Z,7.35
2023-02-25T10:55:54.884Z,5.88
2023-02-25T10:58:28.383Z,7.13
2023-02-25T11:01:00.729Z,7.43
2023-02-25T11:03:31.658Z,6.75
2023-02-25T11:06:23.408Z,6.13
2023-02-25T11:08:52.509Z,7.75
2023-02-25T11:11:26.223Z,6.88
2023-02-25T11:14:01.333Z,5.15
2023-02-25T11:16:31.081Z,7.05
2023-02-25T11:19:01.512Z,7.32
2023-02-25T11:21:36.212Z,5.90
2023-02-25T11:24:12.611Z,4.75
2023-02-25T11:26:45.181Z,5.55
2023-02-25T11:29:20.773Z,4.40
2023-02-25T11:31:55.285Z,4.97
2023-02-25T11:34:29.394Z,5.72
2023-02-25T11:37:00.185Z,4.75
2023-02-25T11:39:32.980Z,6.60
2023-02-25T11:42:23.250Z,6.20
2023-02-25T11:44:50.311Z,5.32
2023-02-25T11:47:27.294Z,5.60
2023-02-25T11:50:05.233Z,5.05
2023-02-25T11:52:53.351Z,5.28
2023-02-25T11:55:51.789Z,6.00
2023-02-25T11:58:25.067Z,6.32
2023-02-25T12:01:04.939Z,7.45
2023-02-25T12:04:01.343Z,5.78
2023-02-25T12:06:43.521Z,6.47
2023-02-25T12:09:31.819Z,6.40
2023-02-25T12:12:44.964Z,5.65
2023-02-25T12:15:27.133Z,5.65
2023-02-25T12:18:12.295Z,6.88
2023-02-25T12:21:24.111Z,7.25
2023-02-25T12:24:26.460Z,6.30
2023-02-25T12:27:40.337Z,6.50
2023-02-25T12:30:16.627Z,7.65
2023-02-25T12:33:02.300Z,8.00
2023-02-25T12:35:48.248Z,7.53
2023-02-25T12:38:18.485Z,7.38
2023-02-25T12:41:16.674Z,8.15
2023-02-25T12:43:56.011Z,7.60
2023-02-25T12:46:47.967Z,8.00
2023-02-25T12:49:24.000Z,7.55
2023-02-25T12:52:00.248Z,7.47
2023-02-25T12:54:57.637Z,7.53
2023-02-25T12:57:34.591Z,7.65
2023-02-25T13:00:39.360Z,7.85
2023-02-25T13:03:33.313Z,7.63
2023-02-25T13:06:21.059Z,7.07
2023-02-25T13:09:01.264Z,7.93
2023-02-25T13:12:10.548Z,6.22
2023-02-25T13:15:04.846Z,7.32
2023-02-25T13:17:50.709Z,7.25
2023-02-25T13:20:30.121Z,7.00
2023-02-25T13:23:22.997Z,8.13
2023-02-25T13:26:18.908Z,7.38
2023-02-25T13:29:01.935Z,7.65
2023-02-25T13:34:23.168Z,7.95
2023-02-25T13:37:04.655Z,7.50
2023-02-25T13:39:50.069Z,7.78
2023-02-25T13:42:17.212Z,7.80
2023-02-25T13:45:02.488Z,8.35
2023-02-25T13:47:57.562Z,7.32
2023-02-25T13:50:33.750Z,8.00
2023-02-25T13:53:13.499Z,7.32
2023-02-25T13:56:00.785Z,7.50
2023-02-25T13:58:46.484Z,7.03
2023-02-25T14:01:20.039Z,7.68
2023-02-25T14:04:24.144Z,7.53
2023-02-25T14:07:20.611Z,7.38
2023-02-25T14:09:50.775Z,9.07
2023-02-25T14:12:39.280Z,8.23
2023-02-25T14:15:37.369Z,9.73
2023-02-25T14:18:13.334Z,9.38
2023-02-25T14:21:02.110Z,9.02
2023-02-25T14:23:48.447Z,6.70
2023-02-25T14:26:37.749Z,8.32
2023-02-25T14:29:16.329Z,8.07
2023-02-25T14:31:49.602Z,8.77
2023-02-25T14:34:35.450Z,9.55
2023-02-25T14:37:28.701Z,9.75
2023-02-25T14:40:27.298Z,8.52
2023-02-25T14:43:06.210Z,9.57
2023-02-25T14:45:40.372Z,7.00
2023-02-25T14:48:10.451Z,8.30
2023-02-25T14:50:51.529Z,10.85
2023-02-25T14:53:48.283Z,9.45
2023-02-25T14:56:37.387Z,8.95
2023-02-25T14:59:25.504Z,7.70
2023-02-25T15:02:17.653Z,9.25
2023-02-25T15:04:59.914Z,10.30
2023-02-25T15:07:44.561Z,8.68
2023-02-25T15:10:43.319Z,8.82
2023-02-25T15:13:10.449Z,9.18
2023-02-25T15:15:47.145Z,7.15
2023-02-25T15:18:35.984Z,7.20
2023-02-25T15:21:27.808Z,3.78
2023-02-25T15:23:55.137Z,2.25
2023-02-25T15:26:44.363Z,1.95
2023-02-25T15:29:29.967Z,1.08
2023-02-25T15:32:22.430Z,1.17
2023-02-25T15:34:56.859Z,1.90
2023-02-25T15:37:32.104Z,2.15
2023-02-25T15:40:24.516Z,1.70
2023-02-25T15:42:54.191Z,1.17
2023-02-25T15:45:27.823Z,1.35
2023-02-25T15:48:21.661Z,1.42
2023-02-25T15:50:48.971Z,2.42
2023-02-25T15:53:22.116Z,1.17
2023-02-25T15:55:54.068Z,2.65
2023-02-25T15:58:24.428Z,1.30
2023-02-25T16:01:28.784Z,1.25
2023-02-25T16:03:56.041Z,0.80
2023-02-25T16:06:32.465Z,0.95
2023-02-25T16:09:18.553Z,2.83
2023-02-25T16:11:49.903Z,1.52
2023-02-25T16:14:29.005Z,1.75
2023-02-25T16:16:59.726Z,1.85
2023-02-25T16:19:31.017Z,1.83
2023-02-25T16:22:02.994Z,2.00
2023-02-25T16:24:30.987Z,4.53
2023-02-25T16:27:02.897Z,1.65
2023-02-25T16:30:03.696Z,1.25
2023-02-25T16:32:46.039Z,1.60
2023-02-25T16:35:33.964Z,1.10
2023-02-25T16:38:05.131Z,1.13
2023-02-25T16:40:38.482Z,0.88
2023-02-25T16:43:07.632Z,1.05
2023-02-25T16:45:42.607Z,1.25
2023-02-25T16:48:19.470Z,0.70
2023-02-25T16:50:49.040Z,1.00
2023-02-25T16:53:25.553Z,0.40
2023-02-25T16:55:59.944Z,0.50
2023-02-25T16:58:30.579Z,0.40
2023-02-25T17:01:00.607Z,0.68
2023-02-25T17:03:41.775Z,0.70
2023-02-25T17:06:17.204Z,0.60
2023-02-25T17:08:46.159Z,1.10
2023-02-25T17:11:18.128Z,0.80
2023-02-25T17:13:48.296Z,0.57
2023-02-25T17:16:29.033Z,0.52
2023-02-25T17:18:59.685Z,0.70
2023-02-25T17:21:33.905Z,0.68
2023-02-25T17:24:03.174Z,0.50
2023-02-25T17:26:31.743Z,0.60
2023-02-25T17:29:02.021Z,0.50
2023-02-25T17:31:30.765Z,0.43
2023-02-25T17:34:01.294Z,0.70
2023-02-25T17:36:32.488Z,0.40
2023-02-25T17:39:03.376Z,0.30
2023-02-25T17:41:30.762Z,0.40
2023-02-25T17:43:57.987Z,0.57
2023-02-25T17:46:25.350Z,0.98
2023-02-25T17:48:59.640Z,0.60
2023-02-25T17:51:36.573Z,0.63
2023-02-25T17:54:08.027Z,0.43
2023-02-25T17:56:36.815Z,0.90
2023-02-25T17:59:07.703Z,0.80
2023-02-25T18:01:54.739Z,0.50
2023-02-25T18:04:40.852Z,0.52
2023-02-25T18:07:33.327Z,0.90
2023-02-25T18:10:01.942Z,0.73
2023-02-25T18:12:30.806Z,1.60
2023-02-25T18:15:03.709Z,1.15
2023-02-25T18:17:38.116Z,1.70
2023-02-25T18:20:09.206Z,1.38
2023-02-25T18:22:50.773Z,1.48
2023-02-25T18:25:37.615Z,1.52
2023-02-25T18:28:10.108Z,1.75
2023-02-25T18:30:37.366Z,1.60
2023-02-25T18:33:04.761Z,1.98
2023-02-25T18:35:32.981Z,1.77
2023-02-25T18:38:01.019Z,1.67
2023-02-25T18:40:35.992Z,1.88
2023-02-25T18:43:04.526Z,1.50
2023-02-25T18:45:33.754Z,1.88
2023-02-25T18:48:01.881Z,1.70
2023-02-25T18:50:33.187Z,1.80
2023-02-25T18:53:01.201Z,1.60
2023-02-25T18:55:30.508Z,1.80
2023-02-25T18:57:58.989Z,1.73
2023-02-25T19:00:27.573Z,1.30
2023-02-25T19:03:05.025Z,1.70
2023-02-25T19:05:32.267Z,2.15
2023-02-25T19:07:59.780Z,1.75
2023-02-25T19:10:30.543Z,2.13
2023-02-25T19:13:06.992Z,1.60
2023-02-25T19:15:34.618Z,1.92
2023-02-25T19:18:01.782Z,2.08
2023-02-25T19:20:29.095Z,1.80
2023-02-25T19:22:56.198Z,1.67
2023-02-25T19:25:34.460Z,1.85
2023-02-25T19:28:02.370Z,1.75
2023-02-25T19:30:34.222Z,1.95
2023-02-25T19:33:04.735Z,1.97
2023-02-25T19:35:34.981Z,2.28
2023-02-25T19:38:03.103Z,2.35
2023-02-25T19:40:30.385Z,1.52
2023-02-25T19:42:58.526Z,2.42
2023-02-25T19:45:27.318Z,2.53
2023-02-25T19:47:55.325Z,2.72
2023-02-25T19:50:25.169Z,2.20
2023-02-25T19:52:55.875Z,2.20
2023-02-25T19:55:23.400Z,2.22
2023-02-25T19:57:50.768Z,2.72
2023-02-25T20:00:20.892Z,2.45
2023-02-25T20:02:48.988Z,2.40
2023-02-25T20:05:16.208Z,2.13
2023-02-25T20:07:43.507Z,2.55
2023-02-25T20:10:13.245Z,2.15
2023-02-25T20:12:42.344Z,2.65
2023-02-25T20:15:12.302Z,2.20
2023-02-25T20:17:40.772Z,2.15
2023-02-25T20:20:08.770Z,2.83
2023-02-25T20:22:38.031Z,2.40
2023-02-25T20:25:06.532Z,3.33
2023-02-25T20:27:36.369Z,2.05
2023-02-25T20:30:05.058Z,2.67
2023-02-25T20:32:32.563Z,2.38
2023-02-25T20:34:59.928Z,1.75
2023-02-25T20:37:37.572Z,1.90
2023-02-25T20:40:08.563Z,2.40
2023-02-25T20:42:36.501Z,2.05
2023-02-25T20:45:04.490Z,2.42
2023-02-25T20:47:37.737Z,2.67
2023-02-25T20:50:06.658Z,2.65
2023-02-25T20:52:34.398Z,2.03
2023-02-25T20:55:01.994Z,2.50
2023-02-25T20:57:29.174Z,2.10
2023-02-25T20:59:56.520Z,2.42
2023-02-25T21:02:23.765Z,2.28
2023-02-25T21:04:51.581Z,2.00
2023-02-25T21:07:18.509Z,2.47
2023-02-25T21:09:45.836Z,2.33
2023-02-25T21:12:12.740Z,2.30
2023-02-25T21:14:39.775Z,2.22
2023-02-25T21:17:09.836Z,2.40
2023-02-25T21:19:38.905Z,2.10
2023-02-25T21:22:07.582Z,1.90
2023-02-25T21:24:34.967Z,2.67
2023-02-25T21:27:02.376Z,2.17
2023-02-25T21:29:29.536Z,1.52
2023-02-25T21:31:56.843Z,2.30
2023-02-25T21:34:24.549Z,1.25
2023-02-25T21:36:51.726Z,2.03
2023-02-25T21:39:19.272Z,2.78
2023-02-25T21:41:46.503Z,1.95
2023-02-25T21:44:14.032Z,1.92
2023-02-25T21:46:42.369Z,2.55
2023-02-25T21:49:10.881Z,1.83
2023-02-25T21:51:38.099Z,2.22
2023-02-25T21:54:05.468Z,2.40
2023-02-25T21:56:32.588Z,2.30
2023-02-25T21:59:03.654Z,2.42
2023-02-25T22:01:36.837Z,2.33
2023-02-25T22:04:04.942Z,2.60
2023-02-25T22:06:32.572Z,2.67
2023-02-25T22:09:00.572Z,1.73
2023-02-25T22:11:30.646Z,1.42
2023-02-25T22:14:02.401Z,2.83
2023-02-25T22:16:29.822Z,1.83
2023-02-25T22:18:56.927Z,1.27
2023-02-25T22:21:26.564Z,2.13
2023-02-25T22:23:56.297Z,1.63
2023-02-25T22:26:26.144Z,1.80
2023-02-25T22:29:02.011Z,2.75
2023-02-25T22:31:29.311Z,2.58
2023-02-25T22:33:57.464Z,2.63
2023-02-25T22:36:25.690Z,3.22
2023-02-25T22:38:53.669Z,2.03
2023-02-25T22:41:27.028Z,2.88
2023-02-25T22:43:54.533Z,2.58
2023-02-25T22:46:36.465Z,2.67
2023-02-25T22:49:05.146Z,2.05
2023-02-25T22:51:37.489Z,2.47
2023-02-25T22:54:05.294Z,2.53
2023-02-25T22:56:32.631Z,1.70
2023-02-25T22:59:00.348Z,2.25
2023-02-25T23:01:27.841Z,2.60
2023-02-25T23:03:56.115Z,2.58
2023-02-25T23:06:37.445Z,2.83
2023-02-25T23:09:09.447Z,2.40
2023-02-25T23:11:36.393Z,2.58
2023-02-25T23:14:04.987Z,1.92
2023-02-25T23:16:36.257Z,2.25
2023-02-25T23:19:05.223Z,1.67
2023-02-25T23:21:33.774Z,2.63
2023-02-25T23:24:02.287Z,2.08
2023-02-25T23:26:33.693Z,2.22
2023-02-25T23:29:03.602Z,1.67
2023-02-25T23:31:34.014Z,1.98
2023-02-25T23:34:04.239Z,2.22
2023-02-25T23:36:31.379Z,2.13
2023-02-25T23:39:02.909Z,2.70
2023-02-25T23:41:30.285Z,2.50
2023-02-25T23:44:01.211Z,1.83
2023-02-25T23:46:29.951Z,1.83
2023-02-25T23:49:00.169Z,3.25
2023-02-25T23:51:27.856Z,1.73
2023-02-25T23:53:57.930Z,2.33
2023-02-25T23:56:27.248Z,1.60
2023-02-25T23:58:55.415Z,2.40
